Seattle, Washington
Traffic Map
Current Weather Conditions
Seattle, Washington
Broken Clouds
Broken Clouds
19°
Feels Like: 19°
Wind Chill: 19° Ceiling: 25000
Heat Index: 19° Visibility: 10mi
Dew Point: Wind: 9mph
Humidity: 52% Direction: 170° (S)
Pressure: 29.95in Gusts: 0mph
Raw Report DataKBFI 272353Z 17008KT 10SM SCT150 BKN250 19/09 A2995 RMK AO2 SLP140 T01890089 10206 20167 56012
Traffic Incident Summary
Active as of:
Severity:
Category:
InformationThere was an issue retrieving the traffic information for this location. Please try a different location or try again shortly.
Advertisements
Track Severe Weather on mobile